Terminal Aerodrome Forecast
Issued by NWS

Home | Current Version | Previous Version | Text Only | Print | Product List | Glossary On
Versions: 1 2 3 4 5 6 7 8 9 10 11 12 13 14 15 16 17 18 19 20 21
000
FTUS41 KLWX 262320
TAFMTN
TAF
KMTN 262320Z 2700/2724 24005KT P6SM SCT250
     FM270500 VRB03KT P6SM OVC100
     FM270800 VRB03KT P6SM -RA OVC060
     FM271200 06004KT 3SM -RA OVC025
     FM271800 02005KT P6SM OVC010
     FM272200 32004KT P6SM BKN150
      AMD NOT SKED 2702/2712=

USA.gov is the U.S. government's official web portal to all federal, state and local government web resources and services.